Aviation Digital Data Service (ADDS)

Output produced by METARs form (0841 UTC 27 September 2016)
found at http://aviationweather.gov/adds/metars/
 
KARA 270520Z 2706/2806 VRB03KT P6SM SCT050 BKN100 
     FM271500 03009KT P6SM SCT050 BKN100